TimeEST,TemperatureF,Dew PointF,Humidity,Sea Level PressureIn,VisibilityMPH,Wind Direction,Wind SpeedMPH,Gust SpeedMPH,PrecipitationIn,Events,Conditions,WindDirDegrees,DateUTC
12:53 AM,27.0,23.0,85,30.31,10.0,Calm,Calm,-,N/A,,Overcast,0,2012-11-16 05:53:00
1:53 AM,27.0,24.1,89,30.31,10.0,Calm,Calm,-,N/A,,Overcast,0,2012-11-16 06:53:00
2:53 AM,26.1,23.0,88,30.30,10.0,West,6.9,-,N/A,,Overcast,280,2012-11-16 07:53:00
3:16 AM,26.6,23.0,86,30.26,10.0,WNW,6.9,-,N/A,,Overcast,290,2012-11-16 08:16:00
3:53 AM,26.1,21.9,84,30.30,10.0,West,6.9,-,N/A,,Overcast,280,2012-11-16 08:53:00
4:53 AM,25.0,21.9,88,30.29,10.0,West,8.1,-,N/A,,Overcast,280,2012-11-16 09:53:00
5:04 AM,24.8,21.2,86,30.25,10.0,NW,5.8,-,N/A,,Overcast,310,2012-11-16 10:04:00
5:53 AM,25.0,21.9,88,30.30,10.0,NW,5.8,-,N/A,,Overcast,310,2012-11-16 10:53:00
6:53 AM,25.0,21.9,88,30.31,10.0,West,3.5,-,N/A,,Overcast,270,2012-11-16 11:53:00
7:13 AM,24.8,21.2,86,30.27,10.0,West,3.5,-,N/A,,Overcast,280,2012-11-16 12:13:00
7:53 AM,26.1,21.9,84,30.31,10.0,WNW,3.5,-,N/A,,Overcast,290,2012-11-16 12:53:00
8:53 AM,27.0,23.0,85,30.31,10.0,Calm,Calm,-,N/A,,Overcast,0,2012-11-16 13:53:00
9:53 AM,30.9,23.0,72,30.31,10.0,NW,5.8,-,N/A,,Overcast,320,2012-11-16 14:53:00
10:27 AM,30.2,24.8,80,30.27,10.0,West,5.8,-,N/A,,Scattered Clouds,280,2012-11-16 15:27:00
10:53 AM,33.1,24.1,70,30.29,10.0,NW,5.8,-,N/A,,Clear,310,2012-11-16 15:53:00
11:53 AM,37.0,24.1,59,30.27,10.0,NW,6.9,-,N/A,,Clear,320,2012-11-16 16:53:00
12:53 PM,37.9,24.1,57,30.25,10.0,NNW,8.1,16.1,N/A,,Clear,330,2012-11-16 17:53:00
1:53 PM,39.0,24.1,55,30.25,10.0,NW,5.8,-,N/A,,Clear,320,2012-11-16 18:53:00
2:53 PM,37.0,25.0,62,30.27,10.0,West,4.6,-,N/A,,Clear,280,2012-11-16 19:53:00
3:53 PM,35.1,25.0,67,30.29,10.0,NNW,8.1,-,N/A,,Mostly Cloudy,330,2012-11-16 20:53:00
4:12 PM,35.6,26.6,70,30.26,10.0,NNW,9.2,18.4,N/A,,Overcast,330,2012-11-16 21:12:00
4:53 PM,34.0,26.1,73,30.30,10.0,NNW,4.6,-,N/A,,Mostly Cloudy,330,2012-11-16 21:53:00
5:04 PM,33.8,26.6,75,30.26,10.0,NNW,5.8,-,N/A,,Scattered Clouds,330,2012-11-16 22:04:00
5:15 PM,33.8,26.6,75,30.27,10.0,NW,6.9,-,N/A,,Mostly Cloudy,310,2012-11-16 22:15:00
5:53 PM,34.0,26.1,73,30.32,10.0,NW,11.5,-,N/A,,Overcast,320,2012-11-16 22:53:00
6:12 PM,33.8,26.6,75,30.29,10.0,NW,9.2,-,N/A,,Overcast,320,2012-11-16 23:12:00
6:53 PM,33.1,25.0,72,30.33,10.0,NW,5.8,-,N/A,,Mostly Cloudy,320,2012-11-16 23:53:00
7:53 PM,33.1,26.1,75,30.34,10.0,NW,10.4,-,N/A,,Overcast,320,2012-11-17 00:53:00
8:28 PM,32.0,26.6,80,30.31,10.0,NNW,11.5,-,N/A,,Overcast,340,2012-11-17 01:28:00
8:53 PM,32.0,26.1,79,30.35,10.0,NNW,15.0,20.7,N/A,,Overcast,330,2012-11-17 01:53:00
9:53 PM,30.0,21.0,69,30.36,10.0,NW,12.7,18.4,N/A,,Mostly Cloudy,320,2012-11-17 02:53:00
10:53 PM,28.9,19.0,67,30.37,10.0,NW,12.7,23.0,N/A,,Mostly Cloudy,310,2012-11-17 03:53:00
11:53 PM,27.0,19.0,72,30.39,10.0,NNW,12.7,19.6,N/A,,Scattered Clouds,340,2012-11-17 04:53:00